sensor_id;sensor_type;location;lat;lon;timestamp;P1;durP1;ratioP1;P2;durP2;ratioP2
32533;SDS011;18973;48.580;8.912;2024-01-30T00:01:52;21.95;;;10.70;;
32533;SDS011;18973;48.580;8.912;2024-01-30T00:04:18;14.18;;;8.02;;
32533;SDS011;18973;48.580;8.912;2024-01-30T00:06:43;12.23;;;7.60;;
32533;SDS011;18973;48.580;8.912;2024-01-30T00:09:09;12.07;;;7.10;;
32533;SDS011;18973;48.580;8.912;2024-01-30T00:11:36;12.40;;;7.43;;
32533;SDS011;18973;48.580;8.912;2024-01-30T00:14:04;10.55;;;7.18;;
32533;SDS011;18973;48.580;8.912;2024-01-30T00:16:30;14.18;;;7.65;;
32533;SDS011;18973;48.580;8.912;2024-01-30T00:18:56;11.57;;;7.45;;
32533;SDS011;18973;48.580;8.912;2024-01-30T00:21:23;10.85;;;7.43;;
32533;SDS011;18973;48.580;8.912;2024-01-30T00:23:49;12.98;;;7.70;;
32533;SDS011;18973;48.580;8.912;2024-01-30T00:26:15;13.27;;;7.22;;
32533;SDS011;18973;48.580;8.912;2024-01-30T00:28:41;12.88;;;7.40;;
32533;SDS011;18973;48.580;8.912;2024-01-30T00:31:07;10.52;;;7.70;;
32533;SDS011;18973;48.580;8.912;2024-01-30T00:33:34;15.98;;;8.32;;
32533;SDS011;18973;48.580;8.912;2024-01-30T00:35:59;13.38;;;8.38;;
32533;SDS011;18973;48.580;8.912;2024-01-30T00:38:25;13.27;;;7.93;;
32533;SDS011;18973;48.580;8.912;2024-01-30T00:40:50;10.57;;;7.70;;
32533;SDS011;18973;48.580;8.912;2024-01-30T00:43:16;11.75;;;7.80;;
32533;SDS011;18973;48.580;8.912;2024-01-30T00:45:45;14.57;;;8.07;;
32533;SDS011;18973;48.580;8.912;2024-01-30T00:48:10;12.80;;;7.72;;
32533;SDS011;18973;48.580;8.912;2024-01-30T00:50:36;13.80;;;8.77;;
32533;SDS011;18973;48.580;8.912;2024-01-30T00:53:02;12.82;;;8.90;;
32533;SDS011;18973;48.580;8.912;2024-01-30T00:55:27;12.63;;;8.23;;
32533;SDS011;18973;48.580;8.912;2024-01-30T00:57:53;12.30;;;7.90;;
32533;SDS011;18973;48.580;8.912;2024-01-30T01:00:19;16.13;;;9.35;;
32533;SDS011;18973;48.580;8.912;2024-01-30T01:02:46;15.48;;;8.75;;
32533;SDS011;18973;48.580;8.912;2024-01-30T01:05:11;13.27;;;8.60;;
32533;SDS011;18973;48.580;8.912;2024-01-30T01:07:37;12.80;;;8.30;;
32533;SDS011;18973;48.580;8.912;2024-01-30T01:10:03;14.25;;;8.38;;
32533;SDS011;18973;48.580;8.912;2024-01-30T01:12:29;11.40;;;7.80;;
32533;SDS011;18973;48.580;8.912;2024-01-30T01:14:54;10.70;;;7.22;;
32533;SDS011;18973;48.580;8.912;2024-01-30T01:17:20;10.57;;;7.18;;
32533;SDS011;18973;48.580;8.912;2024-01-30T01:19:46;10.75;;;7.38;;
32533;SDS011;18973;48.580;8.912;2024-01-30T01:22:12;10.73;;;7.55;;
32533;SDS011;18973;48.580;8.912;2024-01-30T01:24:37;9.00;;;6.53;;
32533;SDS011;18973;48.580;8.912;2024-01-30T01:27:04;13.15;;;7.30;;
32533;SDS011;18973;48.580;8.912;2024-01-30T01:29:30;11.43;;;7.65;;
32533;SDS011;18973;48.580;8.912;2024-01-30T01:31:57;14.95;;;7.78;;
32533;SDS011;18973;48.580;8.912;2024-01-30T01:34:23;14.38;;;8.40;;
32533;SDS011;18973;48.580;8.912;2024-01-30T01:36:49;12.30;;;7.88;;
32533;SDS011;18973;48.580;8.912;2024-01-30T01:39:15;11.10;;;7.47;;
32533;SDS011;18973;48.580;8.912;2024-01-30T01:41:41;12.93;;;8.20;;
32533;SDS011;18973;48.580;8.912;2024-01-30T01:44:07;13.52;;;7.97;;
32533;SDS011;18973;48.580;8.912;2024-01-30T01:46:34;12.57;;;8.07;;
32533;SDS011;18973;48.580;8.912;2024-01-30T01:49:00;14.32;;;8.30;;
32533;SDS011;18973;48.580;8.912;2024-01-30T01:51:28;12.73;;;8.80;;
32533;SDS011;18973;48.580;8.912;2024-01-30T01:53:55;13.57;;;9.07;;
32533;SDS011;18973;48.580;8.912;2024-01-30T01:56:23;12.63;;;7.80;;
32533;SDS011;18973;48.580;8.912;2024-01-30T01:58:51;13.18;;;8.13;;
32533;SDS011;18973;48.580;8.912;2024-01-30T02:01:20;13.82;;;8.90;;
32533;SDS011;18973;48.580;8.912;2024-01-30T02:03:48;11.25;;;7.90;;
32533;SDS011;18973;48.580;8.912;2024-01-30T02:06:14;10.13;;;7.65;;
32533;SDS011;18973;48.580;8.912;2024-01-30T02:08:41;12.38;;;8.18;;
32533;SDS011;18973;48.580;8.912;2024-01-30T02:11:07;12.40;;;8.05;;
32533;SDS011;18973;48.580;8.912;2024-01-30T02:13:35;11.90;;;8.40;;
32533;SDS011;18973;48.580;8.912;2024-01-30T02:16:01;12.40;;;7.75;;
32533;SDS011;18973;48.580;8.912;2024-01-30T02:18:26;15.70;;;8.60;;
32533;SDS011;18973;48.580;8.912;2024-01-30T02:20:53;13.23;;;8.73;;
32533;SDS011;18973;48.580;8.912;2024-01-30T02:23:21;12.63;;;7.70;;
32533;SDS011;18973;48.580;8.912;2024-01-30T02:25:50;15.30;;;8.57;;
32533;SDS011;18973;48.580;8.912;2024-01-30T02:28:18;12.95;;;8.02;;
32533;SDS011;18973;48.580;8.912;2024-01-30T02:30:44;10.35;;;7.25;;
32533;SDS011;18973;48.580;8.912;2024-01-30T02:33:10;14.20;;;8.55;;
32533;SDS011;18973;48.580;8.912;2024-01-30T02:35:36;13.70;;;8.68;;
32533;SDS011;18973;48.580;8.912;2024-01-30T02:38:01;14.65;;;8.38;;
32533;SDS011;18973;48.580;8.912;2024-01-30T02:40:27;10.55;;;8.45;;
32533;SDS011;18973;48.580;8.912;2024-01-30T02:42:53;11.55;;;8.07;;
32533;SDS011;18973;48.580;8.912;2024-01-30T02:45:18;25.80;;;11.70;;
32533;SDS011;18973;48.580;8.912;2024-01-30T02:47:45;24.75;;;12.38;;
32533;SDS011;18973;48.580;8.912;2024-01-30T02:50:11;28.80;;;13.13;;
32533;SDS011;18973;48.580;8.912;2024-01-30T02:52:37;23.33;;;13.23;;
32533;SDS011;18973;48.580;8.912;2024-01-30T02:55:02;19.33;;;11.95;;
32533;SDS011;18973;48.580;8.912;2024-01-30T02:57:28;16.42;;;9.60;;
32533;SDS011;18973;48.580;8.912;2024-01-30T02:59:54;15.52;;;9.95;;
32533;SDS011;18973;48.580;8.912;2024-01-30T03:02:20;14.10;;;9.05;;
32533;SDS011;18973;48.580;8.912;2024-01-30T03:04:45;19.17;;;10.32;;
32533;SDS011;18973;48.580;8.912;2024-01-30T03:07:12;19.10;;;10.70;;
32533;SDS011;18973;48.580;8.912;2024-01-30T03:09:38;18.65;;;9.93;;
32533;SDS011;18973;48.580;8.912;2024-01-30T03:12:04;34.35;;;10.75;;
32533;SDS011;18973;48.580;8.912;2024-01-30T03:14:30;16.67;;;9.57;;
32533;SDS011;18973;48.580;8.912;2024-01-30T03:16:57;17.80;;;9.82;;
32533;SDS011;18973;48.580;8.912;2024-01-30T03:19:22;15.73;;;10.27;;
32533;SDS011;18973;48.580;8.912;2024-01-30T03:21:48;15.63;;;10.05;;
32533;SDS011;18973;48.580;8.912;2024-01-30T03:24:14;16.02;;;10.10;;
32533;SDS011;18973;48.580;8.912;2024-01-30T03:26:40;14.68;;;9.82;;
32533;SDS011;18973;48.580;8.912;2024-01-30T03:29:05;14.38;;;10.00;;
32533;SDS011;18973;48.580;8.912;2024-01-30T03:31:31;16.77;;;9.93;;
32533;SDS011;18973;48.580;8.912;2024-01-30T03:33:57;14.30;;;9.30;;
32533;SDS011;18973;48.580;8.912;2024-01-30T03:36:23;13.88;;;9.05;;
32533;SDS011;18973;48.580;8.912;2024-01-30T03:38:48;15.57;;;9.95;;
32533;SDS011;18973;48.580;8.912;2024-01-30T03:41:14;13.77;;;10.00;;
32533;SDS011;18973;48.580;8.912;2024-01-30T03:43:40;20.50;;;11.88;;
32533;SDS011;18973;48.580;8.912;2024-01-30T03:46:06;17.00;;;9.80;;
32533;SDS011;18973;48.580;8.912;2024-01-30T03:48:32;15.63;;;9.50;;
32533;SDS011;18973;48.580;8.912;2024-01-30T03:50:57;15.10;;;9.57;;
32533;SDS011;18973;48.580;8.912;2024-01-30T03:53:23;13.95;;;9.73;;
32533;SDS011;18973;48.580;8.912;2024-01-30T03:55:49;15.52;;;9.25;;
32533;SDS011;18973;48.580;8.912;2024-01-30T03:58:15;13.68;;;9.38;;
32533;SDS011;18973;48.580;8.912;2024-01-30T04:00:40;11.75;;;8.55;;
32533;SDS011;18973;48.580;8.912;2024-01-30T04:03:06;18.90;;;9.70;;
32533;SDS011;18973;48.580;8.912;2024-01-30T04:05:32;16.05;;;10.05;;
32533;SDS011;18973;48.580;8.912;2024-01-30T04:07:58;14.23;;;9.88;;
32533;SDS011;18973;48.580;8.912;2024-01-30T04:10:24;16.70;;;10.05;;
32533;SDS011;18973;48.580;8.912;2024-01-30T04:12:50;14.40;;;9.43;;
32533;SDS011;18973;48.580;8.912;2024-01-30T04:15:17;14.48;;;10.75;;
32533;SDS011;18973;48.580;8.912;2024-01-30T04:17:43;13.48;;;9.73;;
32533;SDS011;18973;48.580;8.912;2024-01-30T04:20:13;15.82;;;10.10;;
32533;SDS011;18973;48.580;8.912;2024-01-30T04:22:42;15.40;;;10.80;;
32533;SDS011;18973;48.580;8.912;2024-01-30T04:25:09;16.90;;;9.80;;
32533;SDS011;18973;48.580;8.912;2024-01-30T04:27:35;14.38;;;10.05;;
32533;SDS011;18973;48.580;8.912;2024-01-30T04:30:01;15.85;;;10.00;;
32533;SDS011;18973;48.580;8.912;2024-01-30T04:32:26;15.98;;;9.35;;
32533;SDS011;18973;48.580;8.912;2024-01-30T04:34:52;16.00;;;9.52;;
32533;SDS011;18973;48.580;8.912;2024-01-30T04:37:18;12.70;;;9.70;;
32533;SDS011;18973;48.580;8.912;2024-01-30T04:39:43;13.98;;;9.02;;
32533;SDS011;18973;48.580;8.912;2024-01-30T04:42:09;15.20;;;9.40;;
32533;SDS011;18973;48.580;8.912;2024-01-30T04:44:35;14.38;;;9.30;;
32533;SDS011;18973;48.580;8.912;2024-01-30T04:47:00;11.77;;;8.35;;
32533;SDS011;18973;48.580;8.912;2024-01-30T04:49:26;11.27;;;8.85;;
32533;SDS011;18973;48.580;8.912;2024-01-30T04:51:54;11.98;;;7.95;;
32533;SDS011;18973;48.580;8.912;2024-01-30T04:54:20;12.93;;;8.07;;
32533;SDS011;18973;48.580;8.912;2024-01-30T04:56:46;12.15;;;7.75;;
32533;SDS011;18973;48.580;8.912;2024-01-30T04:59:11;13.93;;;8.93;;
32533;SDS011;18973;48.580;8.912;2024-01-30T05:01:37;11.75;;;8.05;;
32533;SDS011;18973;48.580;8.912;2024-01-30T05:04:03;12.82;;;8.07;;
32533;SDS011;18973;48.580;8.912;2024-01-30T05:06:29;10.40;;;7.85;;
32533;SDS011;18973;48.580;8.912;2024-01-30T05:08:54;11.60;;;8.10;;
32533;SDS011;18973;48.580;8.912;2024-01-30T05:11:20;11.63;;;8.25;;
32533;SDS011;18973;48.580;8.912;2024-01-30T05:13:46;11.93;;;8.48;;
32533;SDS011;18973;48.580;8.912;2024-01-30T05:16:12;15.80;;;9.68;;
32533;SDS011;18973;48.580;8.912;2024-01-30T05:18:38;16.40;;;9.43;;
32533;SDS011;18973;48.580;8.912;2024-01-30T05:21:05;16.30;;;9.70;;
32533;SDS011;18973;48.580;8.912;2024-01-30T05:23:31;13.63;;;9.18;;
32533;SDS011;18973;48.580;8.912;2024-01-30T05:25:56;13.85;;;9.50;;
32533;SDS011;18973;48.580;8.912;2024-01-30T05:28:22;15.98;;;9.27;;
32533;SDS011;18973;48.580;8.912;2024-01-30T05:30:48;13.20;;;9.80;;
32533;SDS011;18973;48.580;8.912;2024-01-30T05:33:13;11.93;;;8.95;;
32533;SDS011;18973;48.580;8.912;2024-01-30T05:35:39;16.60;;;9.30;;
32533;SDS011;18973;48.580;8.912;2024-01-30T05:38:05;11.38;;;8.02;;
32533;SDS011;18973;48.580;8.912;2024-01-30T05:40:31;13.18;;;8.25;;
32533;SDS011;18973;48.580;8.912;2024-01-30T05:42:56;13.02;;;7.88;;
32533;SDS011;18973;48.580;8.912;2024-01-30T05:45:26;14.82;;;9.05;;
32533;SDS011;18973;48.580;8.912;2024-01-30T05:47:52;10.93;;;8.27;;
32533;SDS011;18973;48.580;8.912;2024-01-30T05:50:18;11.73;;;8.40;;
32533;SDS011;18973;48.580;8.912;2024-01-30T05:52:44;18.23;;;9.63;;
32533;SDS011;18973;48.580;8.912;2024-01-30T05:55:11;15.68;;;9.75;;
32533;SDS011;18973;48.580;8.912;2024-01-30T05:57:37;12.57;;;9.10;;
32533;SDS011;18973;48.580;8.912;2024-01-30T06:00:04;15.95;;;8.57;;
32533;SDS011;18973;48.580;8.912;2024-01-30T06:02:30;14.75;;;9.30;;
32533;SDS011;18973;48.580;8.912;2024-01-30T06:04:56;15.60;;;9.57;;
32533;SDS011;18973;48.580;8.912;2024-01-30T06:07:22;13.02;;;8.75;;
32533;SDS011;18973;48.580;8.912;2024-01-30T06:09:48;14.85;;;9.70;;
32533;SDS011;18973;48.580;8.912;2024-01-30T06:12:13;17.58;;;10.55;;
32533;SDS011;18973;48.580;8.912;2024-01-30T06:14:39;16.40;;;10.25;;
32533;SDS011;18973;48.580;8.912;2024-01-30T06:17:07;18.05;;;9.77;;
32533;SDS011;18973;48.580;8.912;2024-01-30T06:19:33;18.65;;;9.82;;
32533;SDS011;18973;48.580;8.912;2024-01-30T06:21:58;20.15;;;11.85;;
32533;SDS011;18973;48.580;8.912;2024-01-30T06:24:24;16.17;;;10.73;;
32533;SDS011;18973;48.580;8.912;2024-01-30T06:26:50;18.23;;;10.60;;
32533;SDS011;18973;48.580;8.912;2024-01-30T06:29:15;29.05;;;13.65;;
32533;SDS011;18973;48.580;8.912;2024-01-30T06:31:41;22.42;;;11.45;;
32533;SDS011;18973;48.580;8.912;2024-01-30T06:34:08;18.15;;;10.80;;
32533;SDS011;18973;48.580;8.912;2024-01-30T06:36:37;20.08;;;9.10;;
32533;SDS011;18973;48.580;8.912;2024-01-30T06:39:03;15.27;;;9.25;;
32533;SDS011;18973;48.580;8.912;2024-01-30T06:41:29;13.55;;;9.98;;
32533;SDS011;18973;48.580;8.912;2024-01-30T06:43:55;13.88;;;9.00;;
32533;SDS011;18973;48.580;8.912;2024-01-30T06:46:21;16.30;;;9.77;;
32533;SDS011;18973;48.580;8.912;2024-01-30T06:48:47;13.75;;;9.20;;
32533;SDS011;18973;48.580;8.912;2024-01-30T06:51:12;18.27;;;8.57;;
32533;SDS011;18973;48.580;8.912;2024-01-30T06:53:38;11.90;;;8.57;;
32533;SDS011;18973;48.580;8.912;2024-01-30T06:56:04;14.15;;;8.25;;
32533;SDS011;18973;48.580;8.912;2024-01-30T06:58:30;8.93;;;7.22;;
32533;SDS011;18973;48.580;8.912;2024-01-30T07:00:59;8.82;;;7.10;;
32533;SDS011;18973;48.580;8.912;2024-01-30T07:03:24;9.05;;;7.30;;
32533;SDS011;18973;48.580;8.912;2024-01-30T07:05:50;8.80;;;6.90;;
32533;SDS011;18973;48.580;8.912;2024-01-30T07:08:16;12.43;;;7.00;;
32533;SDS011;18973;48.580;8.912;2024-01-30T07:10:45;13.15;;;8.02;;
32533;SDS011;18973;48.580;8.912;2024-01-30T07:13:11;14.68;;;9.00;;
32533;SDS011;18973;48.580;8.912;2024-01-30T07:15:37;16.90;;;9.10;;
32533;SDS011;18973;48.580;8.912;2024-01-30T07:18:03;13.50;;;8.73;;
32533;SDS011;18973;48.580;8.912;2024-01-30T07:20:30;11.15;;;7.43;;
32533;SDS011;18973;48.580;8.912;2024-01-30T07:22:57;10.75;;;6.78;;
32533;SDS011;18973;48.580;8.912;2024-01-30T07:25:23;12.13;;;7.50;;
32533;SDS011;18973;48.580;8.912;2024-01-30T07:27:52;11.02;;;6.72;;
32533;SDS011;18973;48.580;8.912;2024-01-30T07:30:19;14.55;;;7.97;;
32533;SDS011;18973;48.580;8.912;2024-01-30T07:32:45;14.07;;;7.82;;
32533;SDS011;18973;48.580;8.912;2024-01-30T07:35:11;15.48;;;8.13;;
32533;SDS011;18973;48.580;8.912;2024-01-30T07:37:38;11.10;;;7.38;;
32533;SDS011;18973;48.580;8.912;2024-01-30T07:40:03;12.75;;;6.88;;
32533;SDS011;18973;48.580;8.912;2024-01-30T07:42:30;10.05;;;6.80;;
32533;SDS011;18973;48.580;8.912;2024-01-30T07:44:55;10.88;;;7.38;;
32533;SDS011;18973;48.580;8.912;2024-01-30T07:47:21;9.80;;;7.25;;
32533;SDS011;18973;48.580;8.912;2024-01-30T07:49:46;15.95;;;8.60;;
32533;SDS011;18973;48.580;8.912;2024-01-30T07:52:13;14.32;;;8.77;;
32533;SDS011;18973;48.580;8.912;2024-01-30T07:54:38;14.25;;;8.23;;
32533;SDS011;18973;48.580;8.912;2024-01-30T07:57:04;12.50;;;7.97;;
32533;SDS011;18973;48.580;8.912;2024-01-30T07:59:30;12.25;;;7.53;;
32533;SDS011;18973;48.580;8.912;2024-01-30T08:01:55;12.38;;;7.45;;
32533;SDS011;18973;48.580;8.912;2024-01-30T08:04:21;12.50;;;7.95;;
32533;SDS011;18973;48.580;8.912;2024-01-30T08:06:47;13.07;;;8.02;;
32533;SDS011;18973;48.580;8.912;2024-01-30T08:09:12;17.98;;;9.05;;
32533;SDS011;18973;48.580;8.912;2024-01-30T08:11:38;11.68;;;8.20;;
32533;SDS011;18973;48.580;8.912;2024-01-30T08:14:03;13.93;;;9.40;;
32533;SDS011;18973;48.580;8.912;2024-01-30T08:16:29;17.08;;;9.73;;
32533;SDS011;18973;48.580;8.912;2024-01-30T08:18:55;17.45;;;9.15;;
32533;SDS011;18973;48.580;8.912;2024-01-30T08:21:22;17.60;;;9.88;;
32533;SDS011;18973;48.580;8.912;2024-01-30T08:23:48;19.15;;;9.35;;
32533;SDS011;18973;48.580;8.912;2024-01-30T08:26:14;15.95;;;10.48;;
32533;SDS011;18973;48.580;8.912;2024-01-30T08:28:39;18.17;;;11.27;;
32533;SDS011;18973;48.580;8.912;2024-01-30T08:31:05;21.83;;;11.70;;
32533;SDS011;18973;48.580;8.912;2024-01-30T08:33:30;17.65;;;10.30;;
32533;SDS011;18973;48.580;8.912;2024-01-30T08:35:56;20.50;;;10.00;;
32533;SDS011;18973;48.580;8.912;2024-01-30T08:38:22;14.90;;;8.95;;
32533;SDS011;18973;48.580;8.912;2024-01-30T08:40:48;16.65;;;10.25;;
32533;SDS011;18973;48.580;8.912;2024-01-30T08:43:14;15.70;;;10.35;;
32533;SDS011;18973;48.580;8.912;2024-01-30T08:45:40;15.18;;;9.07;;
32533;SDS011;18973;48.580;8.912;2024-01-30T08:48:06;15.70;;;10.40;;
32533;SDS011;18973;48.580;8.912;2024-01-30T08:50:33;17.13;;;10.00;;
32533;SDS011;18973;48.580;8.912;2024-01-30T08:52:59;12.60;;;9.13;;
32533;SDS011;18973;48.580;8.912;2024-01-30T08:55:25;13.05;;;8.45;;
32533;SDS011;18973;48.580;8.912;2024-01-30T08:57:51;11.10;;;7.90;;
32533;SDS011;18973;48.580;8.912;2024-01-30T09:00:17;13.05;;;8.43;;
32533;SDS011;18973;48.580;8.912;2024-01-30T09:02:43;15.23;;;9.07;;
32533;SDS011;18973;48.580;8.912;2024-01-30T09:05:08;14.32;;;8.48;;
32533;SDS011;18973;48.580;8.912;2024-01-30T09:07:34;15.25;;;8.57;;
32533;SDS011;18973;48.580;8.912;2024-01-30T09:10:00;11.45;;;7.88;;
32533;SDS011;18973;48.580;8.912;2024-01-30T09:12:26;12.75;;;7.43;;
32533;SDS011;18973;48.580;8.912;2024-01-30T09:14:51;8.85;;;6.60;;
32533;SDS011;18973;48.580;8.912;2024-01-30T09:17:17;11.27;;;7.05;;
32533;SDS011;18973;48.580;8.912;2024-01-30T09:19:43;9.70;;;6.82;;
32533;SDS011;18973;48.580;8.912;2024-01-30T09:22:10;12.07;;;7.00;;
32533;SDS011;18973;48.580;8.912;2024-01-30T09:24:36;10.88;;;6.60;;
32533;SDS011;18973;48.580;8.912;2024-01-30T09:27:01;8.65;;;6.43;;
32533;SDS011;18973;48.580;8.912;2024-01-30T09:29:27;10.27;;;6.13;;
32533;SDS011;18973;48.580;8.912;2024-01-30T09:31:53;13.27;;;7.03;;
32533;SDS011;18973;48.580;8.912;2024-01-30T09:34:19;10.45;;;6.40;;
32533;SDS011;18973;48.580;8.912;2024-01-30T09:36:45;12.77;;;6.60;;
32533;SDS011;18973;48.580;8.912;2024-01-30T09:39:10;9.05;;;6.10;;
32533;SDS011;18973;48.580;8.912;2024-01-30T09:41:40;8.93;;;6.00;;
32533;SDS011;18973;48.580;8.912;2024-01-30T09:44:13;11.55;;;6.47;;
32533;SDS011;18973;48.580;8.912;2024-01-30T09:46:40;18.00;;;9.73;;
32533;SDS011;18973;48.580;8.912;2024-01-30T09:49:07;11.45;;;6.82;;
32533;SDS011;18973;48.580;8.912;2024-01-30T09:51:34;9.82;;;6.20;;
32533;SDS011;18973;48.580;8.912;2024-01-30T09:54:01;10.07;;;5.97;;
32533;SDS011;18973;48.580;8.912;2024-01-30T09:56:28;10.95;;;6.22;;
32533;SDS011;18973;48.580;8.912;2024-01-30T09:58:54;10.55;;;5.88;;
32533;SDS011;18973;48.580;8.912;2024-01-30T10:01:19;9.32;;;6.05;;
32533;SDS011;18973;48.580;8.912;2024-01-30T10:03:45;8.23;;;5.18;;
32533;SDS011;18973;48.580;8.912;2024-01-30T10:06:11;10.23;;;5.43;;
32533;SDS011;18973;48.580;8.912;2024-01-30T10:08:37;7.95;;;4.72;;
32533;SDS011;18973;48.580;8.912;2024-01-30T10:11:03;9.02;;;5.78;;
32533;SDS011;18973;48.580;8.912;2024-01-30T10:13:29;7.40;;;5.10;;
32533;SDS011;18973;48.580;8.912;2024-01-30T10:15:54;10.18;;;5.68;;
32533;SDS011;18973;48.580;8.912;2024-01-30T10:18:22;8.40;;;5.95;;
32533;SDS011;18973;48.580;8.912;2024-01-30T10:20:48;9.38;;;5.55;;
32533;SDS011;18973;48.580;8.912;2024-01-30T10:23:14;9.77;;;5.38;;
32533;SDS011;18973;48.580;8.912;2024-01-30T10:25:40;11.77;;;6.90;;
32533;SDS011;18973;48.580;8.912;2024-01-30T10:28:06;12.02;;;6.80;;
32533;SDS011;18973;48.580;8.912;2024-01-30T10:30:32;13.70;;;7.38;;
32533;SDS011;18973;48.580;8.912;2024-01-30T10:32:57;19.38;;;8.13;;
32533;SDS011;18973;48.580;8.912;2024-01-30T10:35:23;12.98;;;6.50;;
32533;SDS011;18973;48.580;8.912;2024-01-30T10:37:49;10.95;;;6.43;;
32533;SDS011;18973;48.580;8.912;2024-01-30T10:40:15;8.15;;;5.45;;
32533;SDS011;18973;48.580;8.912;2024-01-30T10:42:44;9.65;;;5.65;;
32533;SDS011;18973;48.580;8.912;2024-01-30T10:45:11;9.57;;;5.43;;
32533;SDS011;18973;48.580;8.912;2024-01-30T10:47:39;10.10;;;5.82;;
32533;SDS011;18973;48.580;8.912;2024-01-30T10:50:07;6.90;;;5.65;;
32533;SDS011;18973;48.580;8.912;2024-01-30T10:52:34;9.48;;;5.30;;
32533;SDS011;18973;48.580;8.912;2024-01-30T10:55:00;8.30;;;5.30;;
32533;SDS011;18973;48.580;8.912;2024-01-30T10:57:26;5.57;;;4.10;;
32533;SDS011;18973;48.580;8.912;2024-01-30T10:59:53;7.18;;;4.80;;
32533;SDS011;18973;48.580;8.912;2024-01-30T11:02:22;7.47;;;4.65;;
32533;SDS011;18973;48.580;8.912;2024-01-30T11:04:49;8.80;;;4.20;;
32533;SDS011;18973;48.580;8.912;2024-01-30T11:07:23;11.32;;;5.28;;
32533;SDS011;18973;48.580;8.912;2024-01-30T11:09:51;8.55;;;4.65;;
32533;SDS011;18973;48.580;8.912;2024-01-30T11:12:38;8.52;;;4.70;;
32533;SDS011;18973;48.580;8.912;2024-01-30T11:17:49;12.10;;;5.57;;
32533;SDS011;18973;48.580;8.912;2024-01-30T11:20:25;7.93;;;5.10;;
32533;SDS011;18973;48.580;8.912;2024-01-30T11:22:54;8.48;;;4.70;;
32533;SDS011;18973;48.580;8.912;2024-01-30T11:25:21;7.57;;;4.88;;
32533;SDS011;18973;48.580;8.912;2024-01-30T11:27:52;7.85;;;5.25;;
32533;SDS011;18973;48.580;8.912;2024-01-30T11:30:25;7.20;;;4.78;;
32533;SDS011;18973;48.580;8.912;2024-01-30T11:33:05;7.57;;;4.57;;
32533;SDS011;18973;48.580;8.912;2024-01-30T11:35:38;9.25;;;4.60;;
32533;SDS011;18973;48.580;8.912;2024-01-30T11:38:08;7.70;;;4.25;;
32533;SDS011;18973;48.580;8.912;2024-01-30T11:40:36;7.57;;;4.40;;
32533;SDS011;18973;48.580;8.912;2024-01-30T11:43:03;11.73;;;4.78;;
32533;SDS011;18973;48.580;8.912;2024-01-30T11:45:30;10.02;;;4.80;;
32533;SDS011;18973;48.580;8.912;2024-01-30T11:47:57;8.85;;;4.82;;
32533;SDS011;18973;48.580;8.912;2024-01-30T11:50:28;8.93;;;4.47;;
32533;SDS011;18973;48.580;8.912;2024-01-30T11:52:54;7.40;;;4.80;;
32533;SDS011;18973;48.580;8.912;2024-01-30T11:55:20;7.78;;;4.75;;
32533;SDS011;18973;48.580;8.912;2024-01-30T11:57:46;9.73;;;4.80;;
32533;SDS011;18973;48.580;8.912;2024-01-30T12:00:15;12.55;;;5.00;;
32533;SDS011;18973;48.580;8.912;2024-01-30T12:02:42;11.20;;;4.88;;
32533;SDS011;18973;48.580;8.912;2024-01-30T12:05:08;6.65;;;3.72;;
32533;SDS011;18973;48.580;8.912;2024-01-30T12:07:34;7.15;;;4.53;;
32533;SDS011;18973;48.580;8.912;2024-01-30T12:10:00;6.88;;;4.18;;
32533;SDS011;18973;48.580;8.912;2024-01-30T12:12:27;8.32;;;4.00;;
32533;SDS011;18973;48.580;8.912;2024-01-30T12:14:54;7.30;;;3.70;;
32533;SDS011;18973;48.580;8.912;2024-01-30T12:17:26;7.57;;;3.28;;
32533;SDS011;18973;48.580;8.912;2024-01-30T12:20:03;6.57;;;3.60;;
32533;SDS011;18973;48.580;8.912;2024-01-30T12:22:35;5.10;;;3.38;;
32533;SDS011;18973;48.580;8.912;2024-01-30T12:25:15;9.60;;;3.67;;
32533;SDS011;18973;48.580;8.912;2024-01-30T12:27:43;7.35;;;4.05;;
32533;SDS011;18973;48.580;8.912;2024-01-30T12:30:10;6.00;;;3.40;;
32533;SDS011;18973;48.580;8.912;2024-01-30T12:32:42;7.90;;;3.97;;
32533;SDS011;18973;48.580;8.912;2024-01-30T12:35:13;6.05;;;3.58;;
32533;SDS011;18973;48.580;8.912;2024-01-30T12:37:40;6.30;;;3.60;;
32533;SDS011;18973;48.580;8.912;2024-01-30T12:40:09;5.60;;;3.38;;
32533;SDS011;18973;48.580;8.912;2024-01-30T12:42:39;8.50;;;3.80;;
32533;SDS011;18973;48.580;8.912;2024-01-30T12:45:07;10.68;;;4.05;;
32533;SDS011;18973;48.580;8.912;2024-01-30T12:47:33;7.55;;;4.70;;
32533;SDS011;18973;48.580;8.912;2024-01-30T12:49:58;5.55;;;3.92;;
32533;SDS011;18973;48.580;8.912;2024-01-30T12:52:24;5.95;;;3.85;;
32533;SDS011;18973;48.580;8.912;2024-01-30T12:54:50;11.88;;;4.75;;
32533;SDS011;18973;48.580;8.912;2024-01-30T12:57:16;11.80;;;4.68;;
32533;SDS011;18973;48.580;8.912;2024-01-30T12:59:43;7.35;;;4.45;;
32533;SDS011;18973;48.580;8.912;2024-01-30T13:02:10;6.30;;;4.25;;
32533;SDS011;18973;48.580;8.912;2024-01-30T13:04:37;7.38;;;4.28;;
32533;SDS011;18973;48.580;8.912;2024-01-30T13:07:03;6.35;;;3.33;;
32533;SDS011;18973;48.580;8.912;2024-01-30T13:09:29;5.85;;;3.63;;
32533;SDS011;18973;48.580;8.912;2024-01-30T13:11:56;4.82;;;2.95;;
32533;SDS011;18973;48.580;8.912;2024-01-30T13:14:23;6.07;;;3.22;;
32533;SDS011;18973;48.580;8.912;2024-01-30T13:16:50;5.45;;;3.03;;
32533;SDS011;18973;48.580;8.912;2024-01-30T13:19:16;8.85;;;3.65;;
32533;SDS011;18973;48.580;8.912;2024-01-30T13:21:42;7.18;;;3.08;;
32533;SDS011;18973;48.580;8.912;2024-01-30T13:24:08;7.30;;;3.50;;
32533;SDS011;18973;48.580;8.912;2024-01-30T13:26:34;7.70;;;5.70;;
32533;SDS011;18973;48.580;8.912;2024-01-30T13:29:00;6.43;;;3.50;;
32533;SDS011;18973;48.580;8.912;2024-01-30T13:31:26;6.88;;;3.75;;
32533;SDS011;18973;48.580;8.912;2024-01-30T13:33:52;11.43;;;4.18;;
32533;SDS011;18973;48.580;8.912;2024-01-30T13:36:18;5.38;;;3.70;;
32533;SDS011;18973;48.580;8.912;2024-01-30T13:38:44;7.70;;;3.58;;
32533;SDS011;18973;48.580;8.912;2024-01-30T13:41:10;6.97;;;3.72;;
32533;SDS011;18973;48.580;8.912;2024-01-30T13:43:35;7.18;;;3.45;;
32533;SDS011;18973;48.580;8.912;2024-01-30T13:46:01;8.57;;;4.32;;
32533;SDS011;18973;48.580;8.912;2024-01-30T13:48:27;6.72;;;3.60;;
32533;SDS011;18973;48.580;8.912;2024-01-30T13:50:53;6.43;;;4.00;;
32533;SDS011;18973;48.580;8.912;2024-01-30T13:53:19;6.43;;;3.45;;
32533;SDS011;18973;48.580;8.912;2024-01-30T13:55:45;8.07;;;3.47;;
32533;SDS011;18973;48.580;8.912;2024-01-30T13:58:10;5.75;;;4.10;;
32533;SDS011;18973;48.580;8.912;2024-01-30T14:00:36;7.72;;;3.20;;
32533;SDS011;18973;48.580;8.912;2024-01-30T14:03:02;5.03;;;3.60;;
32533;SDS011;18973;48.580;8.912;2024-01-30T14:05:28;7.30;;;3.72;;
32533;SDS011;18973;48.580;8.912;2024-01-30T14:07:54;9.15;;;3.50;;
32533;SDS011;18973;48.580;8.912;2024-01-30T14:10:20;9.30;;;3.30;;
32533;SDS011;18973;48.580;8.912;2024-01-30T14:12:46;7.13;;;3.60;;
32533;SDS011;18973;48.580;8.912;2024-01-30T14:15:15;4.88;;;3.40;;
32533;SDS011;18973;48.580;8.912;2024-01-30T14:17:43;8.82;;;3.72;;
32533;SDS011;18973;48.580;8.912;2024-01-30T14:20:10;5.38;;;3.60;;
32533;SDS011;18973;48.580;8.912;2024-01-30T14:22:36;4.68;;;2.85;;
32533;SDS011;18973;48.580;8.912;2024-01-30T14:25:02;4.63;;;3.25;;
32533;SDS011;18973;48.580;8.912;2024-01-30T14:27:31;9.90;;;4.13;;
32533;SDS011;18973;48.580;8.912;2024-01-30T14:29:57;6.85;;;3.20;;
32533;SDS011;18973;48.580;8.912;2024-01-30T14:32:23;6.97;;;3.45;;
32533;SDS011;18973;48.580;8.912;2024-01-30T14:34:50;8.15;;;3.67;;